Дата Пункты Температура Давл., мм. Влажн., % Ветер Погодные явления
Воздуха Воды Направл. Скорость
19.02.18 11:00 Одесса 4.0 2.0 765 70 С 3 11 ЧАСОВ
19.02.18 05:00 Одесса 1.0 3.0 764 84 С-З 2 05 ЧАСОВ
19.02.18 02:00 Одесса 1.0 3.0 764 86 З 1 02 ЧАСА
18.02.18 11:00 Одесса 1.0 3.0 764 80 С-З 1 23 ЧАСА
18.02.18 08:00 Одесса 1.0 3.0 764 77 С 1 20 ЧАСОВ
18.02.18 05:00 Одесса 2.0 3.0 764 71 С-В 1 17 ЧАСОВ
18.02.18 02:00 Одесса 2.0 3.0 764 84 С-В 2 14 ЧАСОВ
18.02.18 11:00 Одесса 1.0 2.0 764 83 С-В 1 11 ЧАСОВ
18.02.18 08:00 Одесса -1.0 2.0 764 89 С 0 08 ЧАСОВ
18.02.18 05:00 Одесса -1.0 3.0 764 93 С-З 1 05 ЧАСОВ
18.02.18 02:00 Одесса 1.0 3.0 764 75 С-З 2 02 ЧАСА
17.02.18 11:00 Одесса 1.0 3.0 765 75 С 2 23 ЧАСА
17.02.18 08:00 Одесса 3.0 3.0 765 83 С-З 2 20 ЧАСОВ
17.02.18 05:00 Одесса 4.0 3.0 764 75 С 3 17 ЧАСОВ
17.02.18 02:00 Одесса 6.0 3.0 764 74 С 2 14 ЧАСОВ
17.02.18 11:00 Одесса 3.0 3.0 765 89 С 3 11 ЧАСОВ
17.02.18 08:00 Одесса 3.0 3.0 765 94 С-З 3 08 ЧАСОВ
17.02.18 05:00 Одесса 3.0 3.0 765 96 С-З 1 05 ЧАСОВ
17.02.18 02:00 Одесса 3.0 3.0 765 97 З 1 02 ЧАСА
16.02.18 11:00 Одесса 3.0 3.0 766 97 С 0 23 ЧАСА
Количество строк
1 2 3 4 5 6 7 8 9 10
Page 1 of 330